sensor_id;sensor_type;location;lat;lon;timestamp;P1;durP1;ratioP1;P2;durP2;ratioP2
35977;SDS011;22056;0.000;0.000;2023-08-08T00:02:16;2.67;;;0.65;;
35977;SDS011;22056;0.000;0.000;2023-08-08T00:04:42;1.73;;;0.70;;
35977;SDS011;22056;0.000;0.000;2023-08-08T00:07:09;2.40;;;0.80;;
35977;SDS011;22056;0.000;0.000;2023-08-08T00:09:35;1.33;;;0.50;;
35977;SDS011;22056;0.000;0.000;2023-08-08T00:12:02;2.00;;;0.80;;
35977;SDS011;22056;0.000;0.000;2023-08-08T00:14:29;1.40;;;0.60;;
35977;SDS011;22056;0.000;0.000;2023-08-08T00:16:55;2.75;;;0.70;;
35977;SDS011;22056;0.000;0.000;2023-08-08T00:19:21;2.08;;;0.60;;
35977;SDS011;22056;0.000;0.000;2023-08-08T00:21:47;2.65;;;0.63;;
35977;SDS011;22056;0.000;0.000;2023-08-08T00:24:13;2.03;;;0.77;;
35977;SDS011;22056;0.000;0.000;2023-08-08T00:26:39;2.03;;;0.50;;
35977;SDS011;22056;0.000;0.000;2023-08-08T00:29:05;1.05;;;0.50;;
35977;SDS011;22056;0.000;0.000;2023-08-08T00:31:31;0.65;;;0.43;;
35977;SDS011;22056;0.000;0.000;2023-08-08T00:33:58;3.85;;;0.60;;
35977;SDS011;22056;0.000;0.000;2023-08-08T00:36:24;1.77;;;0.65;;
35977;SDS011;22056;0.000;0.000;2023-08-08T00:38:50;1.95;;;0.70;;
35977;SDS011;22056;0.000;0.000;2023-08-08T00:41:16;1.17;;;0.40;;
35977;SDS011;22056;0.000;0.000;2023-08-08T00:43:42;0.70;;;0.47;;
35977;SDS011;22056;0.000;0.000;2023-08-08T00:46:08;2.42;;;0.77;;
35977;SDS011;22056;0.000;0.000;2023-08-08T00:48:34;0.50;;;0.40;;
35977;SDS011;22056;0.000;0.000;2023-08-08T00:51:01;1.20;;;0.50;;
35977;SDS011;22056;0.000;0.000;2023-08-08T00:53:27;1.15;;;0.50;;
35977;SDS011;22056;0.000;0.000;2023-08-08T00:55:56;1.85;;;0.50;;
35977;SDS011;22056;0.000;0.000;2023-08-08T00:58:22;1.17;;;0.50;;
35977;SDS011;22056;0.000;0.000;2023-08-08T01:00:48;0.77;;;0.40;;
35977;SDS011;22056;0.000;0.000;2023-08-08T01:03:14;1.10;;;0.40;;
35977;SDS011;22056;0.000;0.000;2023-08-08T01:05:44;1.98;;;0.70;;
35977;SDS011;22056;0.000;0.000;2023-08-08T01:08:14;1.08;;;0.47;;
35977;SDS011;22056;0.000;0.000;2023-08-08T01:10:42;1.05;;;0.50;;
35977;SDS011;22056;0.000;0.000;2023-08-08T01:13:18;1.05;;;0.52;;
35977;SDS011;22056;0.000;0.000;2023-08-08T01:15:46;1.05;;;0.40;;
35977;SDS011;22056;0.000;0.000;2023-08-08T01:18:12;1.23;;;0.50;;
35977;SDS011;22056;0.000;0.000;2023-08-08T01:20:39;0.57;;;0.40;;
35977;SDS011;22056;0.000;0.000;2023-08-08T01:23:11;0.68;;;0.50;;
35977;SDS011;22056;0.000;0.000;2023-08-08T01:25:39;0.98;;;0.50;;
35977;SDS011;22056;0.000;0.000;2023-08-08T01:28:05;1.38;;;0.50;;
35977;SDS011;22056;0.000;0.000;2023-08-08T01:30:31;1.67;;;0.43;;
35977;SDS011;22056;0.000;0.000;2023-08-08T01:32:58;1.00;;;0.50;;
35977;SDS011;22056;0.000;0.000;2023-08-08T01:35:24;2.13;;;0.43;;
35977;SDS011;22056;0.000;0.000;2023-08-08T01:37:52;0.52;;;0.50;;
35977;SDS011;22056;0.000;0.000;2023-08-08T01:40:20;0.68;;;0.60;;
35977;SDS011;22056;0.000;0.000;2023-08-08T01:42:46;0.50;;;0.43;;
35977;SDS011;22056;0.000;0.000;2023-08-08T01:45:15;1.00;;;0.50;;
35977;SDS011;22056;0.000;0.000;2023-08-08T01:47:41;0.70;;;0.50;;
35977;SDS011;22056;0.000;0.000;2023-08-08T01:50:07;0.93;;;0.43;;
35977;SDS011;22056;0.000;0.000;2023-08-08T01:52:34;0.40;;;0.40;;
35977;SDS011;22056;0.000;0.000;2023-08-08T01:55:00;1.15;;;0.45;;
35977;SDS011;22056;0.000;0.000;2023-08-08T01:57:27;0.55;;;0.47;;
35977;SDS011;22056;0.000;0.000;2023-08-08T01:59:53;2.28;;;0.60;;
35977;SDS011;22056;0.000;0.000;2023-08-08T02:02:19;0.52;;;0.40;;
35977;SDS011;22056;0.000;0.000;2023-08-08T02:04:45;0.40;;;0.40;;
35977;SDS011;22056;0.000;0.000;2023-08-08T02:07:11;0.95;;;0.50;;
35977;SDS011;22056;0.000;0.000;2023-08-08T02:09:37;0.40;;;0.30;;
35977;SDS011;22056;0.000;0.000;2023-08-08T02:12:03;0.50;;;0.40;;
35977;SDS011;22056;0.000;0.000;2023-08-08T02:14:30;0.80;;;0.50;;
35977;SDS011;22056;0.000;0.000;2023-08-08T02:16:56;0.88;;;0.50;;
35977;SDS011;22056;0.000;0.000;2023-08-08T02:19:22;0.47;;;0.40;;
35977;SDS011;22056;0.000;0.000;2023-08-08T02:21:48;0.35;;;0.35;;
35977;SDS011;22056;0.000;0.000;2023-08-08T02:24:14;0.38;;;0.38;;
35977;SDS011;22056;0.000;0.000;2023-08-08T02:26:40;0.90;;;0.40;;
35977;SDS011;22056;0.000;0.000;2023-08-08T02:29:06;0.70;;;0.50;;
35977;SDS011;22056;0.000;0.000;2023-08-08T02:31:32;0.60;;;0.40;;
35977;SDS011;22056;0.000;0.000;2023-08-08T02:33:58;0.52;;;0.40;;
35977;SDS011;22056;0.000;0.000;2023-08-08T02:36:24;1.13;;;0.47;;
35977;SDS011;22056;0.000;0.000;2023-08-08T02:38:51;0.50;;;0.50;;
35977;SDS011;22056;0.000;0.000;2023-08-08T02:41:18;0.45;;;0.30;;
35977;SDS011;22056;0.000;0.000;2023-08-08T02:43:45;0.70;;;0.40;;
35977;SDS011;22056;0.000;0.000;2023-08-08T02:46:11;0.55;;;0.40;;
35977;SDS011;22056;0.000;0.000;2023-08-08T02:48:37;0.60;;;0.40;;
35977;SDS011;22056;0.000;0.000;2023-08-08T02:51:03;0.60;;;0.50;;
35977;SDS011;22056;0.000;0.000;2023-08-08T02:53:30;0.40;;;0.32;;
35977;SDS011;22056;0.000;0.000;2023-08-08T02:55:56;0.65;;;0.52;;
35977;SDS011;22056;0.000;0.000;2023-08-08T02:58:22;0.30;;;0.30;;
35977;SDS011;22056;0.000;0.000;2023-08-08T03:00:48;0.63;;;0.45;;
35977;SDS011;22056;0.000;0.000;2023-08-08T03:03:14;0.40;;;0.40;;
35977;SDS011;22056;0.000;0.000;2023-08-08T03:05:40;0.35;;;0.30;;
35977;SDS011;22056;0.000;0.000;2023-08-08T03:08:06;0.52;;;0.50;;
35977;SDS011;22056;0.000;0.000;2023-08-08T03:10:32;0.55;;;0.40;;
35977;SDS011;22056;0.000;0.000;2023-08-08T03:12:58;0.30;;;0.30;;
35977;SDS011;22056;0.000;0.000;2023-08-08T03:15:24;0.55;;;0.35;;
35977;SDS011;22056;0.000;0.000;2023-08-08T03:17:51;0.40;;;0.40;;
35977;SDS011;22056;0.000;0.000;2023-08-08T03:20:17;0.38;;;0.38;;
35977;SDS011;22056;0.000;0.000;2023-08-08T03:22:43;0.45;;;0.38;;
35977;SDS011;22056;0.000;0.000;2023-08-08T03:25:09;0.77;;;0.50;;
35977;SDS011;22056;0.000;0.000;2023-08-08T03:27:35;0.40;;;0.40;;
35977;SDS011;22056;0.000;0.000;2023-08-08T03:30:02;0.40;;;0.40;;
35977;SDS011;22056;0.000;0.000;2023-08-08T03:32:28;0.68;;;0.40;;
35977;SDS011;22056;0.000;0.000;2023-08-08T03:34:54;0.55;;;0.40;;
35977;SDS011;22056;0.000;0.000;2023-08-08T03:37:20;0.50;;;0.40;;
35977;SDS011;22056;0.000;0.000;2023-08-08T03:39:46;0.40;;;0.40;;
35977;SDS011;22056;0.000;0.000;2023-08-08T03:42:12;0.47;;;0.45;;
35977;SDS011;22056;0.000;0.000;2023-08-08T03:44:38;0.40;;;0.30;;
35977;SDS011;22056;0.000;0.000;2023-08-08T03:47:04;0.63;;;0.50;;
35977;SDS011;22056;0.000;0.000;2023-08-08T03:49:31;0.95;;;0.60;;
35977;SDS011;22056;0.000;0.000;2023-08-08T03:51:57;1.00;;;0.40;;
35977;SDS011;22056;0.000;0.000;2023-08-08T03:54:23;0.60;;;0.45;;
35977;SDS011;22056;0.000;0.000;2023-08-08T03:56:49;0.50;;;0.50;;
35977;SDS011;22056;0.000;0.000;2023-08-08T03:59:15;0.50;;;0.50;;
35977;SDS011;22056;0.000;0.000;2023-08-08T04:01:41;0.65;;;0.30;;
35977;SDS011;22056;0.000;0.000;2023-08-08T04:04:07;0.40;;;0.40;;
35977;SDS011;22056;0.000;0.000;2023-08-08T04:06:33;0.60;;;0.30;;
35977;SDS011;22056;0.000;0.000;2023-08-08T04:08:59;0.40;;;0.40;;
35977;SDS011;22056;0.000;0.000;2023-08-08T04:11:26;1.52;;;0.40;;
35977;SDS011;22056;0.000;0.000;2023-08-08T04:13:52;0.85;;;0.55;;
35977;SDS011;22056;0.000;0.000;2023-08-08T04:16:18;2.00;;;0.50;;
35977;SDS011;22056;0.000;0.000;2023-08-08T04:18:44;0.80;;;0.40;;
35977;SDS011;22056;0.000;0.000;2023-08-08T04:21:10;0.55;;;0.40;;
35977;SDS011;22056;0.000;0.000;2023-08-08T04:23:36;0.60;;;0.35;;
35977;SDS011;22056;0.000;0.000;2023-08-08T04:26:02;0.80;;;0.40;;
35977;SDS011;22056;0.000;0.000;2023-08-08T04:28:28;1.30;;;0.73;;
35977;SDS011;22056;0.000;0.000;2023-08-08T04:30:55;1.17;;;0.50;;
35977;SDS011;22056;0.000;0.000;2023-08-08T04:33:21;0.98;;;0.35;;
35977;SDS011;22056;0.000;0.000;2023-08-08T04:35:47;0.90;;;0.50;;
35977;SDS011;22056;0.000;0.000;2023-08-08T04:38:14;1.02;;;0.50;;
35977;SDS011;22056;0.000;0.000;2023-08-08T04:40:41;2.00;;;0.50;;
35977;SDS011;22056;0.000;0.000;2023-08-08T04:43:07;0.40;;;0.40;;
35977;SDS011;22056;0.000;0.000;2023-08-08T04:45:33;1.98;;;0.40;;
35977;SDS011;22056;0.000;0.000;2023-08-08T04:47:59;0.98;;;0.50;;
35977;SDS011;22056;0.000;0.000;2023-08-08T04:50:25;1.80;;;0.52;;
35977;SDS011;22056;0.000;0.000;2023-08-08T04:52:51;0.75;;;0.50;;
35977;SDS011;22056;0.000;0.000;2023-08-08T04:55:17;0.45;;;0.40;;
35977;SDS011;22056;0.000;0.000;2023-08-08T04:57:44;0.75;;;0.40;;
35977;SDS011;22056;0.000;0.000;2023-08-08T05:00:10;1.10;;;0.43;;
35977;SDS011;22056;0.000;0.000;2023-08-08T05:02:37;1.38;;;0.40;;
35977;SDS011;22056;0.000;0.000;2023-08-08T05:05:04;1.08;;;0.50;;
35977;SDS011;22056;0.000;0.000;2023-08-08T05:07:30;1.13;;;0.43;;
35977;SDS011;22056;0.000;0.000;2023-08-08T05:09:57;1.38;;;0.63;;
35977;SDS011;22056;0.000;0.000;2023-08-08T05:12:24;1.48;;;0.57;;
35977;SDS011;22056;0.000;0.000;2023-08-08T05:14:50;2.67;;;0.63;;
35977;SDS011;22056;0.000;0.000;2023-08-08T05:17:16;1.88;;;0.75;;
35977;SDS011;22056;0.000;0.000;2023-08-08T05:19:42;3.35;;;0.77;;
35977;SDS011;22056;0.000;0.000;2023-08-08T05:22:08;2.88;;;0.90;;
35977;SDS011;22056;0.000;0.000;2023-08-08T05:24:34;3.17;;;0.63;;
35977;SDS011;22056;0.000;0.000;2023-08-08T05:27:00;3.40;;;0.77;;
35977;SDS011;22056;0.000;0.000;2023-08-08T05:29:28;2.75;;;0.88;;
35977;SDS011;22056;0.000;0.000;2023-08-08T05:31:54;2.15;;;0.60;;
35977;SDS011;22056;0.000;0.000;2023-08-08T05:34:21;3.22;;;0.85;;
35977;SDS011;22056;0.000;0.000;2023-08-08T05:36:47;2.58;;;0.60;;
35977;SDS011;22056;0.000;0.000;2023-08-08T05:39:14;2.58;;;1.00;;
35977;SDS011;22056;0.000;0.000;2023-08-08T05:41:40;4.90;;;1.05;;
35977;SDS011;22056;0.000;0.000;2023-08-08T05:44:06;1.85;;;0.80;;
35977;SDS011;22056;0.000;0.000;2023-08-08T05:46:32;3.47;;;0.80;;
35977;SDS011;22056;0.000;0.000;2023-08-08T05:48:58;3.15;;;0.82;;
35977;SDS011;22056;0.000;0.000;2023-08-08T05:51:26;5.32;;;1.02;;
35977;SDS011;22056;0.000;0.000;2023-08-08T05:53:52;3.17;;;0.80;;
35977;SDS011;22056;0.000;0.000;2023-08-08T05:56:18;2.42;;;0.80;;
35977;SDS011;22056;0.000;0.000;2023-08-08T05:58:45;2.65;;;0.80;;
35977;SDS011;22056;0.000;0.000;2023-08-08T06:01:11;4.13;;;0.85;;
35977;SDS011;22056;0.000;0.000;2023-08-08T06:03:37;2.92;;;1.00;;
35977;SDS011;22056;0.000;0.000;2023-08-08T06:06:03;5.20;;;0.95;;
35977;SDS011;22056;0.000;0.000;2023-08-08T06:08:30;1.70;;;0.82;;
35977;SDS011;22056;0.000;0.000;2023-08-08T06:10:57;2.47;;;1.08;;
35977;SDS011;22056;0.000;0.000;2023-08-08T06:13:23;3.63;;;0.90;;
35977;SDS011;22056;0.000;0.000;2023-08-08T06:15:49;5.45;;;0.93;;
35977;SDS011;22056;0.000;0.000;2023-08-08T06:18:16;3.45;;;0.90;;
35977;SDS011;22056;0.000;0.000;2023-08-08T06:20:42;4.05;;;0.95;;
35977;SDS011;22056;0.000;0.000;2023-08-08T06:23:09;5.68;;;1.02;;
35977;SDS011;22056;0.000;0.000;2023-08-08T06:25:35;3.22;;;0.80;;
35977;SDS011;22056;0.000;0.000;2023-08-08T06:28:03;3.70;;;0.90;;
35977;SDS011;22056;0.000;0.000;2023-08-08T06:30:31;2.25;;;0.88;;
35977;SDS011;22056;0.000;0.000;2023-08-08T06:32:57;3.45;;;0.95;;
35977;SDS011;22056;0.000;0.000;2023-08-08T06:35:23;3.78;;;0.98;;
35977;SDS011;22056;0.000;0.000;2023-08-08T06:37:49;4.55;;;0.98;;
35977;SDS011;22056;0.000;0.000;2023-08-08T06:40:16;3.95;;;0.80;;
35977;SDS011;22056;0.000;0.000;2023-08-08T06:42:42;3.28;;;0.65;;
35977;SDS011;22056;0.000;0.000;2023-08-08T06:45:08;3.78;;;0.98;;
35977;SDS011;22056;0.000;0.000;2023-08-08T06:47:35;1.92;;;0.80;;
35977;SDS011;22056;0.000;0.000;2023-08-08T06:50:01;3.65;;;1.00;;
35977;SDS011;22056;0.000;0.000;2023-08-08T06:52:28;5.25;;;1.13;;
35977;SDS011;22056;0.000;0.000;2023-08-08T06:54:54;2.80;;;0.70;;
35977;SDS011;22056;0.000;0.000;2023-08-08T06:57:20;1.75;;;0.80;;
35977;SDS011;22056;0.000;0.000;2023-08-08T06:59:46;2.75;;;0.95;;
35977;SDS011;22056;0.000;0.000;2023-08-08T07:02:16;5.10;;;1.15;;
35977;SDS011;22056;0.000;0.000;2023-08-08T07:04:42;3.85;;;0.90;;
35977;SDS011;22056;0.000;0.000;2023-08-08T07:07:08;4.68;;;0.88;;
35977;SDS011;22056;0.000;0.000;2023-08-08T07:09:35;3.10;;;0.82;;
35977;SDS011;22056;0.000;0.000;2023-08-08T07:12:02;2.25;;;0.95;;
35977;SDS011;22056;0.000;0.000;2023-08-08T07:14:29;3.25;;;1.00;;
35977;SDS011;22056;0.000;0.000;2023-08-08T07:16:55;4.88;;;1.02;;
35977;SDS011;22056;0.000;0.000;2023-08-08T07:19:21;5.07;;;0.90;;
35977;SDS011;22056;0.000;0.000;2023-08-08T07:21:47;2.85;;;1.00;;
35977;SDS011;22056;0.000;0.000;2023-08-08T07:24:13;4.88;;;1.00;;
35977;SDS011;22056;0.000;0.000;2023-08-08T07:26:39;5.00;;;1.35;;
35977;SDS011;22056;0.000;0.000;2023-08-08T07:29:06;8.20;;;1.35;;
35977;SDS011;22056;0.000;0.000;2023-08-08T07:31:32;5.10;;;1.10;;
35977;SDS011;22056;0.000;0.000;2023-08-08T07:33:58;3.67;;;1.05;;
35977;SDS011;22056;0.000;0.000;2023-08-08T07:36:24;6.15;;;1.00;;
35977;SDS011;22056;0.000;0.000;2023-08-08T07:38:50;4.65;;;1.00;;
35977;SDS011;22056;0.000;0.000;2023-08-08T07:41:16;3.08;;;0.93;;
35977;SDS011;22056;0.000;0.000;2023-08-08T07:43:43;4.18;;;0.95;;
35977;SDS011;22056;0.000;0.000;2023-08-08T07:46:09;6.80;;;1.50;;
35977;SDS011;22056;0.000;0.000;2023-08-08T07:48:35;3.13;;;1.25;;
35977;SDS011;22056;0.000;0.000;2023-08-08T07:51:01;8.23;;;1.25;;
35977;SDS011;22056;0.000;0.000;2023-08-08T07:53:28;9.23;;;1.40;;
35977;SDS011;22056;0.000;0.000;2023-08-08T07:55:54;6.03;;;1.55;;
35977;SDS011;22056;0.000;0.000;2023-08-08T07:58:20;3.20;;;1.05;;
35977;SDS011;22056;0.000;0.000;2023-08-08T08:00:50;4.30;;;1.15;;
35977;SDS011;22056;0.000;0.000;2023-08-08T08:03:18;4.68;;;1.20;;
35977;SDS011;22056;0.000;0.000;2023-08-08T08:05:44;4.47;;;1.00;;
35977;SDS011;22056;0.000;0.000;2023-08-08T08:08:10;4.53;;;1.10;;
35977;SDS011;22056;0.000;0.000;2023-08-08T08:10:37;5.80;;;1.00;;
35977;SDS011;22056;0.000;0.000;2023-08-08T08:13:03;2.50;;;1.08;;
35977;SDS011;22056;0.000;0.000;2023-08-08T08:15:29;2.88;;;1.05;;
35977;SDS011;22056;0.000;0.000;2023-08-08T08:17:55;3.17;;;0.80;;
35977;SDS011;22056;0.000;0.000;2023-08-08T08:20:22;3.10;;;1.00;;
35977;SDS011;22056;0.000;0.000;2023-08-08T08:22:48;2.53;;;1.13;;
35977;SDS011;22056;0.000;0.000;2023-08-08T08:25:14;3.78;;;1.10;;
35977;SDS011;22056;0.000;0.000;2023-08-08T08:27:41;3.72;;;1.05;;
35977;SDS011;22056;0.000;0.000;2023-08-08T08:30:07;3.92;;;0.95;;
35977;SDS011;22056;0.000;0.000;2023-08-08T08:32:35;4.75;;;0.98;;
35977;SDS011;22056;0.000;0.000;2023-08-08T08:35:02;1.88;;;0.90;;
35977;SDS011;22056;0.000;0.000;2023-08-08T08:37:29;10.43;;;1.25;;
35977;SDS011;22056;0.000;0.000;2023-08-08T08:39:55;2.38;;;0.80;;
35977;SDS011;22056;0.000;0.000;2023-08-08T08:42:21;4.00;;;0.93;;
35977;SDS011;22056;0.000;0.000;2023-08-08T08:44:48;4.38;;;1.05;;
35977;SDS011;22056;0.000;0.000;2023-08-08T08:47:15;4.72;;;1.02;;
35977;SDS011;22056;0.000;0.000;2023-08-08T08:49:43;7.03;;;1.05;;
35977;SDS011;22056;0.000;0.000;2023-08-08T08:52:10;2.63;;;0.80;;
35977;SDS011;22056;0.000;0.000;2023-08-08T08:54:37;2.92;;;1.00;;
35977;SDS011;22056;0.000;0.000;2023-08-08T08:57:04;2.42;;;1.00;;
35977;SDS011;22056;0.000;0.000;2023-08-08T08:59:30;3.28;;;0.93;;
35977;SDS011;22056;0.000;0.000;2023-08-08T09:01:56;3.28;;;0.95;;
35977;SDS011;22056;0.000;0.000;2023-08-08T09:04:23;5.15;;;0.80;;
35977;SDS011;22056;0.000;0.000;2023-08-08T09:06:50;3.92;;;1.17;;
35977;SDS011;22056;0.000;0.000;2023-08-08T09:09:17;2.80;;;0.85;;
35977;SDS011;22056;0.000;0.000;2023-08-08T09:11:47;2.78;;;0.80;;
35977;SDS011;22056;0.000;0.000;2023-08-08T09:14:17;3.75;;;1.10;;
35977;SDS011;22056;0.000;0.000;2023-08-08T09:16:44;3.25;;;1.00;;
35977;SDS011;22056;0.000;0.000;2023-08-08T09:19:11;5.35;;;0.95;;
35977;SDS011;22056;0.000;0.000;2023-08-08T09:21:37;5.07;;;1.13;;
35977;SDS011;22056;0.000;0.000;2023-08-08T09:24:03;3.95;;;1.00;;
35977;SDS011;22056;0.000;0.000;2023-08-08T09:26:30;4.18;;;1.10;;
35977;SDS011;22056;0.000;0.000;2023-08-08T09:28:56;3.70;;;0.80;;
35977;SDS011;22056;0.000;0.000;2023-08-08T09:31:25;3.42;;;1.08;;
35977;SDS011;22056;0.000;0.000;2023-08-08T09:33:53;2.90;;;1.00;;
35977;SDS011;22056;0.000;0.000;2023-08-08T09:36:19;8.10;;;1.45;;
35977;SDS011;22056;0.000;0.000;2023-08-08T09:38:45;3.47;;;1.23;;
35977;SDS011;22056;0.000;0.000;2023-08-08T09:41:12;3.47;;;0.80;;
35977;SDS011;22056;0.000;0.000;2023-08-08T09:43:39;4.88;;;1.02;;
35977;SDS011;22056;0.000;0.000;2023-08-08T09:46:05;3.97;;;1.08;;
35977;SDS011;22056;0.000;0.000;2023-08-08T09:48:31;3.03;;;0.85;;
35977;SDS011;22056;0.000;0.000;2023-08-08T09:50:58;3.67;;;1.20;;
35977;SDS011;22056;0.000;0.000;2023-08-08T09:53:25;2.88;;;1.20;;
35977;SDS011;22056;0.000;0.000;2023-08-08T09:55:52;3.17;;;1.08;;
35977;SDS011;22056;0.000;0.000;2023-08-08T09:58:18;2.58;;;0.98;;
35977;SDS011;22056;0.000;0.000;2023-08-08T10:00:45;2.10;;;0.88;;
35977;SDS011;22056;0.000;0.000;2023-08-08T10:03:11;6.07;;;1.42;;
35977;SDS011;22056;0.000;0.000;2023-08-08T10:05:37;7.03;;;1.23;;
35977;SDS011;22056;0.000;0.000;2023-08-08T10:08:03;5.22;;;1.33;;
35977;SDS011;22056;0.000;0.000;2023-08-08T10:10:31;2.60;;;1.00;;
35977;SDS011;22056;0.000;0.000;2023-08-08T10:12:57;5.68;;;1.63;;
35977;SDS011;22056;0.000;0.000;2023-08-08T10:15:26;4.95;;;1.38;;
35977;SDS011;22056;0.000;0.000;2023-08-08T10:17:53;5.75;;;1.02;;
35977;SDS011;22056;0.000;0.000;2023-08-08T10:20:19;4.93;;;1.20;;
35977;SDS011;22056;0.000;0.000;2023-08-08T10:22:46;2.50;;;0.88;;
35977;SDS011;22056;0.000;0.000;2023-08-08T10:25:19;4.43;;;1.23;;
35977;SDS011;22056;0.000;0.000;2023-08-08T10:27:45;7.88;;;1.25;;
35977;SDS011;22056;0.000;0.000;2023-08-08T10:30:11;2.25;;;0.85;;
35977;SDS011;22056;0.000;0.000;2023-08-08T10:32:43;6.43;;;1.52;;
35977;SDS011;22056;0.000;0.000;2023-08-08T10:35:09;4.30;;;0.95;;
35977;SDS011;22056;0.000;0.000;2023-08-08T10:37:36;3.25;;;1.25;;
35977;SDS011;22056;0.000;0.000;2023-08-08T10:40:03;2.63;;;1.05;;
35977;SDS011;22056;0.000;0.000;2023-08-08T10:42:33;3.40;;;0.90;;
35977;SDS011;22056;0.000;0.000;2023-08-08T10:45:01;3.80;;;1.15;;
35977;SDS011;22056;0.000;0.000;2023-08-08T10:47:32;2.65;;;0.93;;
35977;SDS011;22056;0.000;0.000;2023-08-08T10:50:02;2.72;;;0.82;;
35977;SDS011;22056;0.000;0.000;2023-08-08T10:52:29;3.83;;;1.38;;
35977;SDS011;22056;0.000;0.000;2023-08-08T10:54:56;3.50;;;1.00;;
35977;SDS011;22056;0.000;0.000;2023-08-08T10:57:25;2.17;;;0.70;;
35977;SDS011;22056;0.000;0.000;2023-08-08T10:59:52;1.83;;;0.73;;
35977;SDS011;22056;0.000;0.000;2023-08-08T11:02:19;3.22;;;0.90;;
35977;SDS011;22056;0.000;0.000;2023-08-08T11:04:47;2.08;;;0.80;;
35977;SDS011;22056;0.000;0.000;2023-08-08T11:07:15;2.30;;;0.77;;
35977;SDS011;22056;0.000;0.000;2023-08-08T11:09:42;4.10;;;1.05;;
35977;SDS011;22056;0.000;0.000;2023-08-08T11:12:14;2.63;;;0.80;;
35977;SDS011;22056;0.000;0.000;2023-08-08T11:17:08;3.03;;;1.08;;
35977;SDS011;22056;0.000;0.000;2023-08-08T11:19:40;4.25;;;1.00;;
35977;SDS011;22056;0.000;0.000;2023-08-08T11:24:34;5.28;;;1.15;;
35977;SDS011;22056;0.000;0.000;2023-08-08T11:27:00;4.70;;;1.02;;
35977;SDS011;22056;0.000;0.000;2023-08-08T11:29:27;2.63;;;1.10;;
35977;SDS011;22056;0.000;0.000;2023-08-08T11:31:56;3.22;;;0.88;;
35977;SDS011;22056;0.000;0.000;2023-08-08T11:34:22;3.25;;;0.75;;
35977;SDS011;22056;0.000;0.000;2023-08-08T11:36:48;4.60;;;1.02;;
35977;SDS011;22056;0.000;0.000;2023-08-08T11:39:15;2.42;;;1.05;;
35977;SDS011;22056;0.000;0.000;2023-08-08T11:41:41;2.70;;;1.00;;
35977;SDS011;22056;0.000;0.000;2023-08-08T11:44:08;2.75;;;0.80;;
35977;SDS011;22056;0.000;0.000;2023-08-08T11:46:34;5.25;;;0.80;;
35977;SDS011;22056;0.000;0.000;2023-08-08T11:49:04;1.80;;;0.90;;
35977;SDS011;22056;0.000;0.000;2023-08-08T11:51:32;4.15;;;0.98;;
35977;SDS011;22056;0.000;0.000;2023-08-08T11:53:59;3.05;;;1.30;;
35977;SDS011;22056;0.000;0.000;2023-08-08T11:56:26;1.38;;;0.73;;
35977;SDS011;22056;0.000;0.000;2023-08-08T11:58:54;3.33;;;0.73;;
35977;SDS011;22056;0.000;0.000;2023-08-08T12:01:25;2.38;;;0.90;;
35977;SDS011;22056;0.000;0.000;2023-08-08T12:03:51;4.05;;;0.90;;
35977;SDS011;22056;0.000;0.000;2023-08-08T12:06:18;3.13;;;1.00;;
35977;SDS011;22056;0.000;0.000;2023-08-08T12:08:44;4.00;;;0.80;;
35977;SDS011;22056;0.000;0.000;2023-08-08T12:11:11;6.78;;;1.00;;
35977;SDS011;22056;0.000;0.000;2023-08-08T12:13:38;3.58;;;1.02;;
35977;SDS011;22056;0.000;0.000;2023-08-08T12:16:05;4.22;;;0.93;;
35977;SDS011;22056;0.000;0.000;2023-08-08T12:18:32;3.97;;;0.70;;
35977;SDS011;22056;0.000;0.000;2023-08-08T12:20:58;3.13;;;1.10;;
35977;SDS011;22056;0.000;0.000;2023-08-08T12:23:25;5.55;;;1.10;;
35977;SDS011;22056;0.000;0.000;2023-08-08T12:25:52;3.25;;;0.82;;
35977;SDS011;22056;0.000;0.000;2023-08-08T12:28:19;7.63;;;1.15;;
35977;SDS011;22056;0.000;0.000;2023-08-08T12:30:45;4.50;;;0.98;;
35977;SDS011;22056;0.000;0.000;2023-08-08T12:33:11;3.58;;;1.10;;
35977;SDS011;22056;0.000;0.000;2023-08-08T12:35:37;5.35;;;0.98;;
35977;SDS011;22056;0.000;0.000;2023-08-08T12:38:03;2.63;;;0.98;;
35977;SDS011;22056;0.000;0.000;2023-08-08T12:40:29;9.27;;;1.55;;
35977;SDS011;22056;0.000;0.000;2023-08-08T12:42:55;7.03;;;1.10;;
35977;SDS011;22056;0.000;0.000;2023-08-08T12:45:22;4.93;;;1.25;;
35977;SDS011;22056;0.000;0.000;2023-08-08T12:47:48;5.43;;;1.10;;
35977;SDS011;22056;0.000;0.000;2023-08-08T12:50:15;3.20;;;1.00;;
35977;SDS011;22056;0.000;0.000;2023-08-08T12:52:41;3.83;;;0.93;;
35977;SDS011;22056;0.000;0.000;2023-08-08T12:55:07;3.85;;;1.20;;
35977;SDS011;22056;0.000;0.000;2023-08-08T12:57:34;8.10;;;1.40;;
35977;SDS011;22056;0.000;0.000;2023-08-08T13:00:00;4.38;;;1.20;;
35977;SDS011;22056;0.000;0.000;2023-08-08T13:02:26;4.53;;;1.38;;
35977;SDS011;22056;0.000;0.000;2023-08-08T13:04:52;5.45;;;1.23;;
35977;SDS011;22056;0.000;0.000;2023-08-08T13:07:19;5.97;;;1.70;;
35977;SDS011;22056;0.000;0.000;2023-08-08T13:09:45;7.63;;;1.60;;
35977;SDS011;22056;0.000;0.000;2023-08-08T13:12:11;6.72;;;1.35;;
35977;SDS011;22056;0.000;0.000;2023-08-08T13:14:37;5.35;;;1.60;;
35977;SDS011;22056;0.000;0.000;2023-08-08T13:17:03;4.35;;;1.30;;
35977;SDS011;22056;0.000;0.000;2023-08-08T13:19:29;5.85;;;1.40;;
35977;SDS011;22056;0.000;0.000;2023-08-08T13:21:56;5.88;;;1.35;;
35977;SDS011;22056;0.000;0.000;2023-08-08T13:24:22;9.95;;;1.25;;
35977;SDS011;22056;0.000;0.000;2023-08-08T13:26:49;5.50;;;0.88;;
35977;SDS011;22056;0.000;0.000;2023-08-08T13:29:15;5.10;;;1.00;;
35977;SDS011;22056;0.000;0.000;2023-08-08T13:31:41;4.88;;;1.17;;
35977;SDS011;22056;0.000;0.000;2023-08-08T13:34:08;4.97;;;1.02;;
35977;SDS011;22056;0.000;0.000;2023-08-08T13:36:35;6.03;;;1.02;;
35977;SDS011;22056;0.000;0.000;2023-08-08T13:39:01;4.20;;;0.90;;
35977;SDS011;22056;0.000;0.000;2023-08-08T13:41:27;4.40;;;1.13;;
35977;SDS011;22056;0.000;0.000;2023-08-08T13:43:53;8.13;;;1.23;;
35977;SDS011;22056;0.000;0.000;2023-08-08T13:46:19;4.10;;;1.10;;
35977;SDS011;22056;0.000;0.000;2023-08-08T13:48:45;7.25;;;1.30;;
35977;SDS011;22056;0.000;0.000;2023-08-08T13:51:12;6.10;;;1.20;;
35977;SDS011;22056;0.000;0.000;2023-08-08T13:53:38;3.83;;;0.85;;
35977;SDS011;22056;0.000;0.000;2023-08-08T13:56:04;4.93;;;1.10;;
35977;SDS011;22056;0.000;0.000;2023-08-08T13:58:31;5.97;;;1.20;;
35977;SDS011;22056;0.000;0.000;2023-08-08T14:00:57;4.97;;;1.33;;
35977;SDS011;22056;0.000;0.000;2023-08-08T14:03:23;4.72;;;0.95;;
35977;SDS011;22056;0.000;0.000;2023-08-08T14:05:50;11.38;;;1.52;;
35977;SDS011;22056;0.000;0.000;2023-08-08T14:08:19;6.18;;;1.40;;
35977;SDS011;22056;0.000;0.000;2023-08-08T14:10:45;4.75;;;1.50;;
35977;SDS011;22056;0.000;0.000;2023-08-08T14:13:12;9.13;;;1.35;;
35977;SDS011;22056;0.000;0.000;2023-08-08T14:15:38;4.28;;;1.13;;
35977;SDS011;22056;0.000;0.000;2023-08-08T14:18:04;10.13;;;1.20;;
35977;SDS011;22056;0.000;0.000;2023-08-08T14:20:30;9.35;;;1.27;;
35977;SDS011;22056;0.000;0.000;2023-08-08T14:22:56;6.70;;;1.23;;
35977;SDS011;22056;0.000;0.000;2023-08-08T14:25:22;4.45;;;1.30;;
35977;SDS011;22056;0.000;0.000;2023-08-08T14:27:48;6.10;;;1.17;;
35977;SDS011;22056;0.000;0.000;2023-08-08T14:30:15;5.95;;;0.98;;
35977;SDS011;22056;0.000;0.000;2023-08-08T14:32:41;8.48;;;1.17;;
35977;SDS011;22056;0.000;0.000;2023-08-08T14:35:07;5.03;;;1.33;;
35977;SDS011;22056;0.000;0.000;2023-08-08T14:37:34;12.55;;;1.83;;
35977;SDS011;22056;0.000;0.000;2023-08-08T14:40:00;5.28;;;1.05;;
35977;SDS011;22056;0.000;0.000;2023-08-08T14:42:27;6.85;;;1.33;;
35977;SDS011;22056;0.000;0.000;2023-08-08T14:44:54;9.98;;;1.38;;
35977;SDS011;22056;0.000;0.000;2023-08-08T14:47:20;5.47;;;1.30;;
35977;SDS011;22056;0.000;0.000;2023-08-08T14:49:46;5.57;;;1.20;;
35977;SDS011;22056;0.000;0.000;2023-08-08T14:52:12;9.75;;;1.30;;
35977;SDS011;22056;0.000;0.000;2023-08-08T14:54:38;8.20;;;1.23;;
35977;SDS011;22056;0.000;0.000;2023-08-08T14:57:05;8.52;;;1.20;;
35977;SDS011;22056;0.000;0.000;2023-08-08T14:59:31;7.82;;;1.13;;
35977;SDS011;22056;0.000;0.000;2023-08-08T15:01:57;4.80;;;0.90;;